KBOS/BOS METAR and TAF weather

Enter ICAO airport designator
Station Type Date Time Source
KBOS METAR 2018/04/21 10:54 UTC NOAA

KBOS 211054Z 28010KT 10SM FEW050 04/M03 A3030 RMK AO2 SLP258 T00441028


Station Type Date Time Source
KBOS Decoded METAR 2018/04/21 10:54 UTC NOAA

BOSTON LOGAN INTERNATIONAL, MA, United States (KBOS) 42-22N 071-01W 54M
Apr 21, 2018 - 06:54 AM EDT / 2018.04.21 1054 UTC
Wind: from the W (280 degrees) at 12 MPH (10 KT):0
Visibility: 10 mile(s):0
Sky conditions: mostly clear
Temperature: 39.9 F (4.4 C)
Dew Point: 27.0 F (-2.8 C)
Relative Humidity: 59%
Pressure (altimeter): 30.3 in. Hg (1026 hPa)
ob: KBOS 211054Z 28010KT 10SM FEW050 04/M03 A3030 RMK AO2 SLP258 T00441028
cycle: 11

Station Type Date Time Source
KBOS TAF 2018/04/21 12:23 UTC NOAA

TAF KBOS 211120Z 2112/2218 29010KT P6SM SKC
FM211800 30008KT P6SM SCT050
FM212300 32006KT P6SM SKC
FM221500 10005KT P6SM FEW050


Example: see airport list